ソルトレイクシティ の空港の天気 - METARとTAF

ソルト・レーク・シティ国際空港 ( KSLC / SLC ) - アメリカ ユタ州ソルトレイクシティ
飛行場実況気象(Metar)
観測時間01/28 23:54 MST (01/29 06:54 UTC)
風向・風速静穏 0m/s
視程10km以上
天気現象
なし
気温-4.4℃
湿度77%
気圧1034.5hPa
METARKSLC 290654Z 00000KT 9SM CLR M04/M08 A3049 RMK AO2 SLP345 T10441078 400391061
過去の天気等 Google飛行場航空写真 Wunderground天気予報

過去48時間のMETAR

飛行場予報(TAF)
発表時間: 1/28 22:20 MST (1/29 05:20 UTC)
予報対象時間: 28日23時 MST ~ 30日5時 MST
風向・風速南東 2m/s
視程10km以上
なし
29日11時 MST から
風向・風速北北西 2m/s
視程10km以上
なし
29日21時 MST から
風向・風速南東 2m/s
視程10km以上
なし
KSLC 290520Z 2906/3012 14004KT P6SM SKC
FM291800 33004KT P6SM SKC
FM300400 14003KT P6SM SKC